createdAt,value
2022-08-23T00:02:27.032Z,98180.41
2022-08-23T00:05:03.632Z,98182.03
2022-08-23T00:07:39.007Z,98181.00
2022-08-23T00:10:10.795Z,98187.16
2022-08-23T00:12:38.861Z,98186.16
2022-08-23T00:15:07.348Z,98182.44
2022-08-23T00:17:35.597Z,98179.38
2022-08-23T00:20:06.915Z,98189.66
2022-08-23T00:22:34.104Z,98188.44
2022-08-23T00:25:00.657Z,98188.84
2022-08-23T00:27:27.691Z,98191.28
2022-08-23T00:29:55.717Z,98186.09
2022-08-23T00:32:25.830Z,98177.63
2022-08-23T00:34:52.662Z,98177.78
2022-08-23T00:37:19.727Z,98181.06
2022-08-23T00:39:46.449Z,98175.13
2022-08-23T00:42:56.748Z,98169.72
2022-08-23T00:45:49.792Z,98174.19
2022-08-23T00:48:16.521Z,98172.97
2022-08-23T00:50:51.351Z,98170.06
2022-08-23T00:53:21.798Z,98169.25
2022-08-23T00:55:51.730Z,98173.38
2022-08-23T00:58:20.472Z,98173.38
2022-08-23T01:00:49.947Z,98168.03
2022-08-23T01:03:16.842Z,98170.47
2022-08-23T01:06:14.193Z,98169.03
2022-08-23T01:08:45.530Z,98176.63
2022-08-23T01:11:17.486Z,98181.53
2022-08-23T01:13:53.308Z,98174.09
2022-08-23T01:16:26.120Z,98181.88
2022-08-23T01:18:54.982Z,98176.88
2022-08-23T01:21:31.243Z,98177.66
2022-08-23T01:24:01.318Z,98183.97
2022-08-23T01:26:28.430Z,98182.91
2022-08-23T01:28:55.446Z,98186.97
2022-08-23T01:31:23.745Z,98187.38
2022-08-23T01:33:55.401Z,98188.16
2022-08-23T01:36:22.494Z,98190.31
2022-08-23T01:38:51.708Z,98180.88
2022-08-23T01:41:19.341Z,98177.78
2022-08-23T01:43:46.305Z,98188.44
2022-08-23T01:46:18.026Z,98193.13
2022-08-23T01:48:46.435Z,98191.66
2022-08-23T01:51:16.733Z,98186.97
2022-08-23T01:53:44.665Z,98190.03
2022-08-23T01:56:11.441Z,98190.72
2022-08-23T01:58:39.315Z,98193.16
2022-08-23T02:01:06.648Z,98195.13
2022-08-23T02:03:34.454Z,98194.66
2022-08-23T02:06:01.157Z,98193.16
2022-08-23T02:08:46.640Z,98195.38
2022-08-23T02:11:16.452Z,98198.50
2022-08-23T02:13:46.382Z,98203.56
2022-08-23T02:16:22.107Z,98204.03
2022-08-23T02:18:48.776Z,98197.50
2022-08-23T02:21:16.545Z,98193.19
2022-08-23T02:23:43.578Z,98192.38
2022-08-23T02:26:10.570Z,98195.22
2022-08-23T02:28:37.703Z,98195.03
2022-08-23T02:31:04.413Z,98199.16
2022-08-23T02:38:49.921Z,98196.72
2022-08-23T02:41:17.656Z,98197.75
2022-08-23T02:43:45.227Z,98205.75
2022-08-23T02:46:12.672Z,98203.72
2022-08-23T02:48:39.827Z,98203.16
2022-08-23T02:51:08.235Z,98207.50
2022-08-23T02:53:34.966Z,98206.75
2022-08-23T02:56:05.481Z,98208.16
2022-08-23T02:58:40.256Z,98210.72
2022-08-23T03:01:22.307Z,98210.59
2022-08-23T03:03:51.954Z,98208.91
2022-08-23T03:06:24.794Z,98209.13
2022-08-23T03:08:53.626Z,98212.75
2022-08-23T03:11:21.792Z,98214.63
2022-08-23T03:13:52.538Z,98218.97
2022-08-23T03:16:19.601Z,98218.22
2022-08-23T03:18:48.288Z,98212.06
2022-08-23T03:21:15.021Z,98216.47
2022-08-23T03:23:41.855Z,98217.94
2022-08-23T03:26:10.886Z,98215.09
2022-08-23T03:28:39.429Z,98224.56
2022-08-23T03:31:07.215Z,98220.34
2022-08-23T03:33:41.879Z,98222.63
2022-08-23T03:36:11.285Z,98223.81
2022-08-23T03:38:39.635Z,98230.25
2022-08-23T03:41:08.915Z,98225.53
2022-08-23T03:43:36.371Z,98229.09
2022-08-23T03:46:03.350Z,98224.75
2022-08-23T03:48:31.095Z,98234.22
2022-08-23T03:50:58.613Z,98236.13
2022-08-23T03:53:25.296Z,98237.78
2022-08-23T03:55:53.371Z,98237.03
2022-08-23T03:58:21.813Z,98240.41
2022-08-23T04:00:48.982Z,98235.75
2022-08-23T04:03:16.142Z,98238.41
2022-08-23T04:06:08.812Z,98243.44
2022-08-23T04:08:35.720Z,98245.19
2022-08-23T04:11:05.341Z,98251.50
2022-08-23T04:13:33.085Z,98248.03
2022-08-23T04:16:03.590Z,98248.69
2022-08-23T04:18:31.990Z,98249.84
2022-08-23T04:21:01.374Z,98248.03
2022-08-23T04:23:28.185Z,98250.69
2022-08-23T04:25:56.210Z,98250.56
2022-08-23T04:28:24.245Z,98258.78
2022-08-23T04:30:51.652Z,98263.44
2022-08-23T04:33:18.403Z,98263.44
2022-08-23T04:35:48.253Z,98270.00
2022-08-23T04:38:18.065Z,98277.25
2022-08-23T04:41:11.123Z,98282.50
2022-08-23T04:43:39.201Z,98278.81
2022-08-23T04:46:05.959Z,98274.75
2022-08-23T04:48:35.521Z,98279.19
2022-08-23T04:51:02.525Z,98278.28
2022-08-23T04:53:35.249Z,98279.69
2022-08-23T04:56:28.451Z,98285.56
2022-08-23T04:58:55.248Z,98293.66
2022-08-23T05:01:25.421Z,98298.25
2022-08-23T05:03:53.399Z,98301.00
2022-08-23T05:06:23.344Z,98298.81
2022-08-23T05:08:49.987Z,98298.94
2022-08-23T05:11:18.926Z,98298.47
2022-08-23T05:13:47.049Z,98298.56
2022-08-23T05:16:14.444Z,98298.13
2022-08-23T05:18:49.261Z,98302.72
2022-08-23T05:21:18.471Z,98302.06
2022-08-23T05:23:50.768Z,98300.50
2022-08-23T05:26:23.215Z,98305.53
2022-08-23T05:28:50.522Z,98305.63
2022-08-23T05:31:22.436Z,98302.88
2022-08-23T05:33:54.394Z,98311.75
2022-08-23T05:36:30.958Z,98307.34
2022-08-23T05:38:58.049Z,98312.88
2022-08-23T05:41:29.107Z,98305.72
2022-08-23T05:44:08.017Z,98302.84
2022-08-23T05:46:35.980Z,98313.31
2022-08-23T05:49:23.289Z,98310.44
2022-08-23T05:51:51.441Z,98310.31
2022-08-23T05:54:19.096Z,98319.41
2022-08-23T05:56:53.083Z,98324.56
2022-08-23T05:59:20.378Z,98321.25
2022-08-23T06:01:47.004Z,98325.38
2022-08-23T06:04:18.943Z,98328.84
2022-08-23T06:06:45.974Z,98330.41
2022-08-23T06:09:14.808Z,98328.91
2022-08-23T06:11:44.864Z,98330.69
2022-08-23T06:14:13.091Z,98337.19
2022-08-23T06:16:42.988Z,98336.28
2022-08-23T06:19:13.018Z,98332.31
2022-08-23T06:21:49.455Z,98327.50
2022-08-23T06:24:23.284Z,98330.91
2022-08-23T06:27:08.776Z,98338.44
2022-08-23T06:29:35.523Z,98338.72
2022-08-23T06:32:20.832Z,98337.72
2022-08-23T06:35:15.866Z,98336.91
2022-08-23T06:38:18.076Z,98338.84
2022-08-23T06:41:11.681Z,98338.88
2022-08-23T06:43:49.453Z,98335.88
2022-08-23T06:46:23.477Z,98350.28
2022-08-23T06:48:50.934Z,98341.66
2022-08-23T06:51:27.842Z,98350.56
2022-08-23T06:54:26.683Z,98348.97
2022-08-23T06:56:54.047Z,98353.53
2022-08-23T06:59:41.794Z,98349.19
2022-08-23T07:02:31.962Z,98351.88
2022-08-23T07:04:58.959Z,98352.50
2022-08-23T07:07:39.634Z,98352.47
2022-08-23T07:10:13.071Z,98346.91
2022-08-23T07:12:42.641Z,98354.13
2022-08-23T07:15:12.659Z,98358.28
2022-08-23T07:17:42.267Z,98353.13
2022-08-23T07:20:09.355Z,98352.47
2022-08-23T07:22:38.992Z,98360.28
2022-08-23T07:25:06.436Z,98358.59
2022-08-23T07:27:34.670Z,98355.50
2022-08-23T07:30:05.368Z,98361.44
2022-08-23T07:32:32.407Z,98358.94
2022-08-23T07:35:07.070Z,98361.81
2022-08-23T07:37:34.469Z,98367.13
2022-08-23T07:40:04.380Z,98361.06
2022-08-23T07:42:33.009Z,98365.81
2022-08-23T07:45:00.057Z,98364.75
2022-08-23T07:47:28.671Z,98371.88
2022-08-23T07:49:56.853Z,98368.72
2022-08-23T07:52:23.595Z,98366.00
2022-08-23T07:54:50.433Z,98370.47
2022-08-23T07:57:46.322Z,98373.69
2022-08-23T08:00:37.227Z,98373.81
2022-08-23T08:03:23.338Z,98377.47
2022-08-23T08:06:11.716Z,98378.56
2022-08-23T08:08:41.046Z,98373.56
2022-08-23T08:11:09.154Z,98378.38
2022-08-23T08:13:41.722Z,98377.84
2022-08-23T08:16:08.925Z,98382.94
2022-08-23T08:18:39.481Z,98377.56
2022-08-23T08:21:29.518Z,98374.84
2022-08-23T08:24:01.780Z,98375.16
2022-08-23T08:26:45.074Z,98375.63
2022-08-23T08:29:13.007Z,98375.81
2022-08-23T08:31:43.457Z,98377.72
2022-08-23T08:34:10.388Z,98386.75
2022-08-23T08:36:44.387Z,98377.50
2022-08-23T08:39:19.788Z,98387.38
2022-08-23T08:42:11.964Z,98377.50
2022-08-23T08:44:51.887Z,98386.28
2022-08-23T08:47:38.612Z,98389.00
2022-08-23T08:50:16.087Z,98384.81
2022-08-23T08:52:48.276Z,98390.75
2022-08-23T08:55:38.789Z,98388.19
2022-08-23T08:58:06.794Z,98385.56
2022-08-23T09:00:38.758Z,98388.59
2022-08-23T09:03:11.882Z,98385.94
2022-08-23T09:05:39.853Z,98388.09
2022-08-23T09:08:12.858Z,98393.06
2022-08-23T09:10:58.664Z,98389.50
2022-08-23T09:14:03.339Z,98390.34
2022-08-23T09:16:46.452Z,98392.78
2022-08-23T09:19:13.353Z,98382.47
2022-08-23T09:21:40.065Z,98383.13
2022-08-23T09:24:07.582Z,98383.78
2022-08-23T09:26:45.450Z,98380.84
2022-08-23T09:29:14.807Z,98374.81
2022-08-23T09:31:44.094Z,98380.75
2022-08-23T09:34:36.351Z,98382.19
2022-08-23T09:37:23.604Z,98385.81
2022-08-23T09:39:53.848Z,98384.75
2022-08-23T09:42:27.222Z,98376.09
2022-08-23T09:44:54.265Z,98366.50
2022-08-23T09:47:34.653Z,98379.91
2022-08-23T09:50:16.350Z,98379.53
2022-08-23T09:52:43.379Z,98383.38
2022-08-23T09:55:25.640Z,98380.66
2022-08-23T09:57:52.530Z,98377.31
2022-08-23T10:00:25.701Z,98368.59
2022-08-23T10:02:57.415Z,98373.19
2022-08-23T10:05:39.263Z,98369.84
2022-08-23T10:08:10.951Z,98370.06
2022-08-23T10:10:48.086Z,98365.97
2022-08-23T10:13:20.715Z,98369.59
2022-08-23T10:16:13.596Z,98374.81
2022-08-23T10:19:13.348Z,98374.19
2022-08-23T10:22:15.883Z,98363.25
2022-08-23T10:25:16.150Z,98360.34
2022-08-23T10:28:15.186Z,98361.84
2022-08-23T10:30:48.282Z,98352.88
2022-08-23T10:33:20.524Z,98353.84
2022-08-23T10:36:09.012Z,98345.66
2022-08-23T10:38:41.111Z,98348.66
2022-08-23T10:41:18.532Z,98348.84
2022-08-23T10:43:59.172Z,98334.63
2022-08-23T10:46:28.159Z,98341.31
2022-08-23T10:48:57.911Z,98332.59
2022-08-23T10:51:32.212Z,98333.34
2022-08-23T10:54:12.638Z,98339.91
2022-08-23T10:56:48.570Z,98332.28
2022-08-23T10:59:23.836Z,98334.16
2022-08-23T11:02:29.222Z,98329.84
2022-08-23T11:05:27.002Z,98337.84
2022-08-23T11:08:02.437Z,98332.25
2022-08-23T11:10:39.192Z,98323.78
2022-08-23T11:13:18.388Z,98321.78
2022-08-23T11:16:00.942Z,98316.59
2022-08-23T11:18:40.873Z,98319.97
2022-08-23T11:21:44.622Z,98318.19
2022-08-23T11:24:13.255Z,98312.78
2022-08-23T11:26:40.062Z,98308.81
2022-08-23T11:29:07.377Z,98309.69
2022-08-23T11:31:51.253Z,98307.72
2022-08-23T11:34:30.036Z,98311.59
2022-08-23T11:37:19.943Z,98304.28
2022-08-23T11:40:00.422Z,98302.53
2022-08-23T11:42:47.208Z,98295.91
2022-08-23T11:45:22.394Z,98296.75
2022-08-23T11:48:07.730Z,98304.72
2022-08-23T11:50:57.712Z,98298.91
2022-08-23T11:53:43.069Z,98296.72
2022-08-23T11:56:21.055Z,98292.47
2022-08-23T11:59:12.913Z,98284.72
2022-08-23T12:01:40.722Z,98283.78
2022-08-23T12:04:25.785Z,98286.56
2022-08-23T12:06:58.121Z,98286.78
2022-08-23T12:09:24.585Z,98281.34
2022-08-23T12:11:57.056Z,98288.19
2022-08-23T12:14:32.751Z,98288.22
2022-08-23T12:17:06.123Z,98285.06
2022-08-23T12:19:40.935Z,98289.84
2022-08-23T12:22:14.023Z,98283.78
2022-08-23T12:24:52.021Z,98282.97
2022-08-23T12:27:34.169Z,98287.56
2022-08-23T12:30:03.878Z,98280.34
2022-08-23T12:32:55.012Z,98287.00
2022-08-23T12:35:24.791Z,98282.28
2022-08-23T12:38:21.521Z,98281.22
2022-08-23T12:40:54.411Z,98266.69
2022-08-23T12:43:24.021Z,98269.03
2022-08-23T12:46:00.828Z,98269.72
2022-08-23T12:48:33.194Z,98272.84
2022-08-23T12:51:08.518Z,98266.88
2022-08-23T12:53:42.671Z,98264.75
2022-08-23T12:56:18.475Z,98262.72
2022-08-23T12:58:57.355Z,98267.47
2022-08-23T13:01:30.147Z,98265.88
2022-08-23T13:04:04.860Z,98264.13
2022-08-23T13:06:40.794Z,98260.38
2022-08-23T13:09:14.151Z,98251.50
2022-08-23T13:11:42.555Z,98255.66
2022-08-23T13:14:34.413Z,98251.88
2022-08-23T13:17:19.841Z,98250.31
2022-08-23T13:19:53.670Z,98253.03
2022-08-23T13:22:25.658Z,98253.19
2022-08-23T13:25:24.543Z,98247.66
2022-08-23T13:27:46.441Z,98250.41
2022-08-23T13:30:12.889Z,98252.88
2022-08-23T13:32:45.241Z,98256.69
2022-08-23T13:35:23.891Z,98249.88
2022-08-23T13:37:52.101Z,98251.09
2022-08-23T13:40:25.558Z,98248.94
2022-08-23T13:43:03.078Z,98247.72
2022-08-23T13:45:33.045Z,98245.63
2022-08-23T13:48:13.255Z,98251.81
2022-08-23T13:50:40.888Z,98242.28
2022-08-23T13:53:15.912Z,98245.41
2022-08-23T13:55:46.353Z,98249.06
2022-08-23T13:58:17.559Z,98246.97
2022-08-23T14:00:45.734Z,98241.81
2022-08-23T14:03:21.782Z,98244.59
2022-08-23T14:05:48.506Z,98243.00
2022-08-23T14:08:15.548Z,98236.34
2022-08-23T14:10:42.823Z,98240.31
2022-08-23T14:13:11.437Z,98234.63
2022-08-23T14:18:26.729Z,98233.28
2022-08-23T14:20:53.555Z,98229.19
2022-08-23T14:23:20.166Z,98229.72
2022-08-23T14:25:47.411Z,98225.66
2022-08-23T14:28:13.958Z,98228.66
2022-08-23T14:30:40.684Z,98230.28
2022-08-23T14:33:07.375Z,98226.50
2022-08-23T14:35:33.997Z,98222.16
2022-08-23T14:38:03.396Z,98233.03
2022-08-23T14:40:30.681Z,98233.28
2022-08-23T14:42:57.465Z,98225.31
2022-08-23T14:45:24.085Z,98222.31
2022-08-23T14:47:50.629Z,98221.56
2022-08-23T14:50:17.458Z,98221.25
2022-08-23T14:52:45.855Z,98227.50
2022-08-23T14:55:13.140Z,98224.19
2022-08-23T14:57:40.114Z,98221.38
2022-08-23T15:00:13.609Z,98223.84
2022-08-23T15:02:44.369Z,98223.88
2022-08-23T15:05:12.642Z,98220.41
2022-08-23T15:07:39.782Z,98231.34
2022-08-23T15:10:09.805Z,98227.59
2022-08-23T15:15:23.367Z,98225.69
2022-08-23T15:17:54.793Z,98231.13
2022-08-23T15:20:24.214Z,98230.56
2022-08-23T15:22:55.378Z,98228.69
2022-08-23T15:25:23.405Z,98227.03
2022-08-23T15:27:50.938Z,98218.06
2022-08-23T15:30:18.019Z,98223.16
2022-08-23T15:32:52.466Z,98218.38
2022-08-23T15:35:23.633Z,98219.59
2022-08-23T15:37:50.276Z,98216.28
2022-08-23T15:40:16.970Z,98209.09
2022-08-23T15:42:43.729Z,98226.28
2022-08-23T15:45:10.790Z,98219.84
2022-08-23T15:47:46.382Z,98222.97
2022-08-23T15:50:13.365Z,98224.78
2022-08-23T15:52:39.980Z,98223.72
2022-08-23T15:55:06.881Z,98215.97
2022-08-23T15:57:45.098Z,98218.75
2022-08-23T16:00:13.488Z,98226.00
2022-08-23T16:03:04.381Z,98230.97
2022-08-23T16:05:26.648Z,98215.00
2022-08-23T16:07:56.165Z,98212.88
2022-08-23T16:10:25.125Z,98218.28
2022-08-23T16:12:54.677Z,98214.75
2022-08-23T16:15:21.298Z,98216.09
2022-08-23T16:17:49.112Z,98206.88
2022-08-23T16:20:15.790Z,98208.22
2022-08-23T16:22:42.401Z,98204.13
2022-08-23T16:25:09.319Z,98211.13
2022-08-23T16:27:36.394Z,98213.41
2022-08-23T16:30:05.127Z,98209.38
2022-08-23T16:32:31.658Z,98204.03
2022-08-23T16:34:58.335Z,98207.66
2022-08-23T16:37:25.549Z,98205.81
2022-08-23T16:39:52.987Z,98215.38
2022-08-23T16:42:19.873Z,98202.88
2022-08-23T16:44:46.535Z,98215.03
2022-08-23T16:47:14.627Z,98212.94
2022-08-23T16:49:43.425Z,98214.50
2022-08-23T16:52:10.679Z,98216.09
2022-08-23T16:54:37.897Z,98217.94
2022-08-23T16:57:05.265Z,98216.28
2022-08-23T16:59:31.899Z,98222.19
2022-08-23T17:02:01.822Z,98218.63
2022-08-23T17:04:38.005Z,98222.63
2022-08-23T17:07:04.741Z,98225.56
2022-08-23T17:09:31.392Z,98223.00
2022-08-23T17:11:58.478Z,98222.63
2022-08-23T17:14:26.042Z,98225.19
2022-08-23T17:16:52.732Z,98226.06
2022-08-23T17:19:19.338Z,98219.84
2022-08-23T17:21:45.930Z,98226.88
2022-08-23T17:24:12.494Z,98231.72
2022-08-23T17:26:39.553Z,98234.44
2022-08-23T17:29:07.359Z,98234.75
2022-08-23T17:31:34.039Z,98235.94
2022-08-23T17:34:03.769Z,98242.84
2022-08-23T17:36:34.291Z,98246.81
2022-08-23T17:39:01.508Z,98241.00
2022-08-23T17:41:28.511Z,98245.50
2022-08-23T17:43:55.837Z,98249.03
2022-08-23T17:46:24.569Z,98255.75
2022-08-23T17:48:51.398Z,98255.44
2022-08-23T17:51:18.078Z,98257.47
2022-08-23T17:53:44.719Z,98266.50
2022-08-23T17:56:12.318Z,98265.41
2022-08-23T17:58:39.372Z,98261.09
2022-08-23T18:01:06.433Z,98264.59
2022-08-23T18:03:33.438Z,98271.91
2022-08-23T18:06:00.532Z,98274.91
2022-08-23T18:08:27.220Z,98277.66
2022-08-23T18:10:53.983Z,98282.59
2022-08-23T18:13:20.784Z,98278.63
2022-08-23T18:15:47.504Z,98283.41
2022-08-23T18:18:14.465Z,98283.19
2022-08-23T18:20:41.089Z,98287.31
2022-08-23T18:23:07.925Z,98287.09
2022-08-23T18:25:35.230Z,98288.16
2022-08-23T18:28:12.883Z,98292.16
2022-08-23T18:30:47.708Z,98301.97
2022-08-23T18:33:15.953Z,98307.53
2022-08-23T18:35:45.798Z,98310.19
2022-08-23T18:38:13.089Z,98303.97
2022-08-23T18:40:45.596Z,98309.56
2022-08-23T18:43:17.831Z,98307.06
2022-08-23T18:45:45.049Z,98309.00
2022-08-23T18:48:12.339Z,98312.63
2022-08-23T18:50:40.363Z,98314.47
2022-08-23T18:53:07.791Z,98319.41
2022-08-23T18:55:36.437Z,98310.88
2022-08-23T18:58:04.488Z,98320.25
2022-08-23T19:00:31.492Z,98333.22
2022-08-23T19:02:59.066Z,98333.22
2022-08-23T19:05:25.784Z,98344.75
2022-08-23T19:07:52.408Z,98348.56
2022-08-23T19:10:20.595Z,98352.59
2022-08-23T19:12:51.819Z,98352.19
2022-08-23T19:15:21.119Z,98356.31
2022-08-23T19:17:47.841Z,98357.31
2022-08-23T19:20:15.698Z,98363.75
2022-08-23T19:22:43.269Z,98361.63
2022-08-23T19:25:09.870Z,98366.84
2022-08-23T19:27:36.735Z,98367.84
2022-08-23T19:30:06.567Z,98372.44
2022-08-23T19:32:35.287Z,98383.25
2022-08-23T19:35:02.051Z,98369.44
2022-08-23T19:37:28.745Z,98372.78
2022-08-23T19:39:55.556Z,98375.09
2022-08-23T19:42:22.271Z,98369.31
2022-08-23T19:44:49.597Z,98370.44
2022-08-23T19:47:19.765Z,98380.78
2022-08-23T19:49:48.422Z,98383.09
2022-08-23T19:52:15.028Z,98385.97
2022-08-23T19:54:41.575Z,98381.84
2022-08-23T19:57:09.989Z,98389.75
2022-08-23T19:59:41.110Z,98394.13
2022-08-23T20:02:09.637Z,98391.97
2022-08-23T20:04:36.925Z,98393.25
2022-08-23T20:07:04.555Z,98391.63
2022-08-23T20:09:32.530Z,98405.31
2022-08-23T20:11:59.393Z,98403.72
2022-08-23T20:14:27.701Z,98403.31
2022-08-23T20:16:54.962Z,98404.56
2022-08-23T20:19:22.018Z,98412.84
2022-08-23T20:21:48.863Z,98413.06
2022-08-23T20:24:16.038Z,98413.69
2022-08-23T20:26:46.983Z,98416.19
2022-08-23T20:29:19.270Z,98426.31
2022-08-23T20:31:50.921Z,98423.19
2022-08-23T20:34:17.542Z,98415.16
2022-08-23T20:36:44.636Z,98422.00
2022-08-23T20:39:11.348Z,98423.00
2022-08-23T20:41:39.495Z,98420.34
2022-08-23T20:44:07.351Z,98414.75
2022-08-23T20:46:34.142Z,98410.44
2022-08-23T20:49:00.748Z,98415.19
2022-08-23T20:51:28.462Z,98422.22
2022-08-23T20:53:56.156Z,98420.53
2022-08-23T20:56:23.489Z,98426.97
2022-08-23T20:58:50.889Z,98428.63
2022-08-23T21:01:18.689Z,98435.44
2022-08-23T21:03:45.713Z,98437.75
2022-08-23T21:06:30.233Z,98433.00
2022-08-23T21:08:59.078Z,98435.69
2022-08-23T21:11:28.330Z,98442.09
2022-08-23T21:13:56.037Z,98444.78
2022-08-23T21:16:23.159Z,98437.34
2022-08-23T21:18:50.138Z,98432.19
2022-08-23T21:21:21.454Z,98432.38
2022-08-23T21:23:48.683Z,98433.44
2022-08-23T21:26:15.934Z,98429.28
2022-08-23T21:28:42.553Z,98438.56
2022-08-23T21:31:12.132Z,98437.53
2022-08-23T21:33:40.343Z,98429.69
2022-08-23T21:36:10.882Z,98426.19
2022-08-23T21:38:38.156Z,98431.13
2022-08-23T21:41:08.461Z,98431.75
2022-08-23T21:43:37.231Z,98433.81
2022-08-23T21:46:05.427Z,98437.13
2022-08-23T21:48:32.340Z,98439.41
2022-08-23T21:50:59.833Z,98437.75
2022-08-23T21:53:26.990Z,98437.97
2022-08-23T21:55:53.791Z,98432.81
2022-08-23T21:58:20.666Z,98437.97
2022-08-23T22:00:47.328Z,98437.97
2022-08-23T22:03:14.025Z,98440.47
2022-08-23T22:05:42.472Z,98431.78
2022-08-23T22:08:09.572Z,98437.78
2022-08-23T22:10:41.387Z,98428.09
2022-08-23T22:13:14.866Z,98427.69
2022-08-23T22:15:42.177Z,98433.25
2022-08-23T22:18:08.855Z,98428.94
2022-08-23T22:20:35.765Z,98426.06
2022-08-23T22:23:02.673Z,98428.53
2022-08-23T22:25:29.548Z,98429.16
2022-08-23T22:27:56.500Z,98420.72
2022-08-23T22:30:24.867Z,98427.94
2022-08-23T22:32:51.478Z,98429.81
2022-08-23T22:35:18.405Z,98429.59
2022-08-23T22:38:03.649Z,98427.13
2022-08-23T22:40:32.012Z,98424.66
2022-08-23T22:42:58.623Z,98425.03
2022-08-23T22:45:25.193Z,98425.03
2022-08-23T22:47:51.803Z,98424.63
2022-08-23T22:50:18.487Z,98423.41
2022-08-23T22:52:45.441Z,98422.97
2022-08-23T22:55:12.047Z,98419.47
2022-08-23T22:57:38.710Z,98423.19
2022-08-23T23:00:06.883Z,98421.75
2022-08-23T23:02:37.406Z,98416.78
2022-08-23T23:05:04.423Z,98413.91
2022-08-23T23:07:49.775Z,98418.63
2022-08-23T23:10:16.992Z,98414.53
2022-08-23T23:12:43.554Z,98416.34
2022-08-23T23:15:10.520Z,98416.31
2022-08-23T23:17:38.530Z,98420.59
2022-08-23T23:20:24.586Z,98420.72
2022-08-23T23:22:51.876Z,98421.53
2022-08-23T23:25:18.788Z,98421.31
2022-08-23T23:27:45.613Z,98420.22
2022-08-23T23:30:15.251Z,98413.22
2022-08-23T23:32:43.297Z,98419.38
2022-08-23T23:35:10.596Z,98423.97
2022-08-23T23:37:37.702Z,98426.06
2022-08-23T23:40:05.964Z,98428.69
2022-08-23T23:42:33.007Z,98419.22
2022-08-23T23:44:59.842Z,98420.56
2022-08-23T23:47:26.811Z,98419.84
2022-08-23T23:49:53.442Z,98431.09
2022-08-23T23:52:20.499Z,98417.03
2022-08-23T23:54:47.097Z,98426.25
2022-08-23T23:57:13.926Z,98423.97
2022-08-23T23:59:41.251Z,98425.59
